Huvudsida
METAR-TAF:

METAR-TAF

Flygplatser :

Tjita, Ryssland

latitud: 52-05N, longitud: 113-29E, höjd: 685 m

Aktuellt väderrapport

Denna rapport gjordes för 20 minuter sedan, klockan 11:30 UTC
Vind 4 kt från väst
Temperatur 7°C
Fuktighet 76%
Tryck 1016 hPa
Sikt 10 km eller mer

METAR: UIAA 251130Z 28002MPS 9999 NSC 07/03 Q1016 R29/70D NOSIG RMK QFE704/0938

Tid: 20:50 (11:50 UTC)

Väderprognos

Denna rapport gjordes för 50 minuter sedan, klockan 11:00 UTC
Prognos gäller från 25 kl. 12 UTC till 26 kl. 12 UTC
Vind 6 kt från ost
Sikt 10 km eller mer
Spridda moln på en höjd av 4000 ft, Cumulonimbus.
Temporärt
från 26 kl. 00 UTC till 26 kl. 12 UTC
Vind 10 kt från syd

TAF: UIAA 251100Z 2512/2612 10003MPS 9999 SCT040CB TEMPO 2600/2612 17005MPS

Aktuella väderrapporter och prognoser från 4000 flygplatser (METAR- och TAF-rapporter).

De tillgängliga stationerna syns som gula och röda prickar på kartan.

För musen över prickarna för att se namnen på stationerna.

Klicka sedan för att få väderrapporter och prognoser.

För att ändra kartan: Klicka på de gröna knapparna med ett svart kors på för att zooma in; den gröna knappen med ett streck på för att zooma ut; eller på de gröna pilarna för angränsande kartor.


METAR-TAF: